createdAt,value
2018-03-06T00:00:13.171Z,71.41
2018-03-06T00:02:41.834Z,71.56
2018-03-06T00:05:10.534Z,71.62
2018-03-06T00:07:39.111Z,71.65
2018-03-06T00:10:07.926Z,71.75
2018-03-06T00:12:36.781Z,71.69
2018-03-06T00:15:05.420Z,71.80
2018-03-06T00:17:33.997Z,72.01
2018-03-06T00:20:02.494Z,72.16
2018-03-06T00:22:30.997Z,72.18
2018-03-06T00:24:59.502Z,72.31
2018-03-06T00:27:28.797Z,72.28
2018-03-06T00:29:57.400Z,72.25
2018-03-06T00:32:25.875Z,72.00
2018-03-06T00:34:55.453Z,71.84
2018-03-06T00:37:24.759Z,71.79
2018-03-06T00:39:53.336Z,71.87
2018-03-06T00:42:21.889Z,71.95
2018-03-06T00:44:50.337Z,72.06
2018-03-06T00:47:18.802Z,71.88
2018-03-06T00:49:48.491Z,71.82
2018-03-06T00:52:16.968Z,71.96
2018-03-06T00:54:45.561Z,72.26
2018-03-06T00:57:14.099Z,72.17
2018-03-06T00:59:42.551Z,72.11
2018-03-06T01:02:11.063Z,72.04
2018-03-06T01:04:39.719Z,72.13
2018-03-06T01:07:08.188Z,72.11
2018-03-06T01:09:36.733Z,72.18
2018-03-06T01:12:05.275Z,72.25
2018-03-06T01:14:33.778Z,72.29
2018-03-06T01:17:03.061Z,72.28
2018-03-06T01:19:31.598Z,72.20
2018-03-06T01:22:00.059Z,72.18
2018-03-06T01:24:28.577Z,71.95
2018-03-06T01:26:57.243Z,72.05
2018-03-06T01:29:25.786Z,72.01
2018-03-06T01:31:54.344Z,71.81
2018-03-06T01:34:22.923Z,71.81
2018-03-06T01:36:51.371Z,71.40
2018-03-06T01:39:19.942Z,71.13
2018-03-06T01:41:48.523Z,71.04
2018-03-06T01:44:17.017Z,71.04
2018-03-06T01:46:45.582Z,71.09
2018-03-06T01:49:15.309Z,70.94
2018-03-06T01:51:55.674Z,71.03
2018-03-06T01:54:24.484Z,71.05
2018-03-06T01:56:52.990Z,70.90
2018-03-06T01:59:21.434Z,70.88
2018-03-06T02:01:50.796Z,70.97
2018-03-06T02:04:19.394Z,71.01
2018-03-06T02:06:47.874Z,71.37
2018-03-06T02:09:16.671Z,71.69
2018-03-06T02:11:45.253Z,71.97
2018-03-06T02:14:13.833Z,72.46
2018-03-06T02:16:42.629Z,72.84
2018-03-06T02:19:11.202Z,73.15
2018-03-06T02:21:39.992Z,73.37
2018-03-06T02:24:09.003Z,73.42
2018-03-06T02:26:37.576Z,73.47
2018-03-06T02:29:06.148Z,73.50
2018-03-06T02:31:35.712Z,73.47
2018-03-06T02:34:04.213Z,73.87
2018-03-06T02:36:32.696Z,73.75
2018-03-06T02:39:01.203Z,73.61
2018-03-06T02:41:29.683Z,73.55
2018-03-06T02:43:58.200Z,73.54
2018-03-06T02:46:27.525Z,73.24
2018-03-06T02:48:56.000Z,73.42
2018-03-06T02:51:24.525Z,73.56
2018-03-06T02:53:53.904Z,73.60
2018-03-06T02:56:22.392Z,73.61
2018-03-06T02:58:50.902Z,73.41
2018-03-06T03:01:19.801Z,73.51
2018-03-06T03:03:48.320Z,73.49
2018-03-06T03:06:17.284Z,73.50
2018-03-06T03:08:46.006Z,73.53
2018-03-06T03:11:14.506Z,73.42
2018-03-06T03:13:43.151Z,73.96
2018-03-06T03:16:11.755Z,74.07
2018-03-06T03:18:40.201Z,74.19
2018-03-06T03:21:08.652Z,74.39
2018-03-06T03:23:37.930Z,74.51
2018-03-06T03:26:06.457Z,74.83
2018-03-06T03:28:34.938Z,74.83
2018-03-06T03:31:03.455Z,74.80
2018-03-06T03:33:32.006Z,74.69
2018-03-06T03:36:00.488Z,74.54
2018-03-06T03:38:28.989Z,74.53
2018-03-06T03:40:57.450Z,74.37
2018-03-06T03:43:25.903Z,74.51
2018-03-06T03:45:54.446Z,74.24
2018-03-06T03:48:23.868Z,73.88
2018-03-06T03:50:52.370Z,73.72
2018-03-06T03:53:20.876Z,73.46
2018-03-06T03:55:50.033Z,73.47
2018-03-06T03:58:18.508Z,73.56
2018-03-06T04:00:47.445Z,73.41
2018-03-06T04:03:15.906Z,73.25
2018-03-06T04:05:44.382Z,73.65
2018-03-06T04:08:13.085Z,73.91
2018-03-06T04:10:41.712Z,73.74
2018-03-06T04:13:10.185Z,73.61
2018-03-06T04:15:38.918Z,74.01
2018-03-06T04:18:07.452Z,74.24
2018-03-06T04:20:36.447Z,73.82
2018-03-06T04:23:05.032Z,73.49
2018-03-06T04:25:37.040Z,73.33
2018-03-06T04:28:06.309Z,73.13
2018-03-06T04:30:34.872Z,73.02
2018-03-06T04:33:03.374Z,72.95
2018-03-06T04:35:31.933Z,72.94
2018-03-06T04:38:00.576Z,73.13
2018-03-06T04:40:29.042Z,73.15
2018-03-06T04:42:58.055Z,73.11
2018-03-06T04:45:26.572Z,73.02
2018-03-06T04:47:56.346Z,72.88
2018-03-06T04:50:25.172Z,73.24
2018-03-06T04:52:53.697Z,73.32
2018-03-06T04:55:22.667Z,73.14
2018-03-06T04:57:51.184Z,73.04
2018-03-06T05:00:19.666Z,72.94
2018-03-06T05:02:48.084Z,72.96
2018-03-06T05:05:16.980Z,72.74
2018-03-06T05:07:45.467Z,72.64
2018-03-06T05:10:14.007Z,73.00
2018-03-06T05:12:43.063Z,72.91
2018-03-06T05:15:11.649Z,73.03
2018-03-06T05:17:40.209Z,72.93
2018-03-06T05:20:08.910Z,72.94
2018-03-06T05:22:37.550Z,72.66
2018-03-06T05:25:06.229Z,72.55
2018-03-06T05:27:35.229Z,72.34
2018-03-06T05:30:03.760Z,72.25
2018-03-06T05:32:32.286Z,72.21
2018-03-06T05:35:00.818Z,72.07
2018-03-06T05:37:29.346Z,71.83
2018-03-06T05:39:57.785Z,71.83
2018-03-06T05:42:26.402Z,71.99
2018-03-06T05:44:54.949Z,71.87
2018-03-06T05:47:23.504Z,71.80
2018-03-06T05:49:52.044Z,71.60
2018-03-06T05:52:20.497Z,71.61
2018-03-06T05:54:48.950Z,71.56
2018-03-06T05:57:17.698Z,71.38
2018-03-06T05:59:46.270Z,71.48
2018-03-06T06:02:15.121Z,71.67
2018-03-06T06:04:43.697Z,71.55
2018-03-06T06:07:12.279Z,71.26
2018-03-06T06:09:40.922Z,71.13
2018-03-06T06:12:11.656Z,70.90
2018-03-06T06:14:40.285Z,70.94
2018-03-06T06:17:08.970Z,70.87
2018-03-06T06:19:37.738Z,70.77
2018-03-06T06:22:06.219Z,70.47
2018-03-06T06:24:34.734Z,70.11
2018-03-06T06:27:03.306Z,69.85
2018-03-06T06:29:31.751Z,69.65
2018-03-06T06:32:00.194Z,69.44
2018-03-06T06:34:28.755Z,69.35
2018-03-06T06:36:57.329Z,69.58
2018-03-06T06:39:25.776Z,69.24
2018-03-06T06:41:54.387Z,69.48
2018-03-06T06:44:22.817Z,69.22
2018-03-06T06:46:51.320Z,68.59
2018-03-06T06:49:20.112Z,68.37
2018-03-06T06:51:48.778Z,68.57
2018-03-06T06:54:17.604Z,68.08
2018-03-06T06:56:47.122Z,68.11
2018-03-06T06:59:15.777Z,68.01
2018-03-06T07:01:44.318Z,67.85
2018-03-06T07:04:14.833Z,67.90
2018-03-06T07:06:43.759Z,67.87
2018-03-06T07:09:12.491Z,67.47
2018-03-06T07:11:41.072Z,67.25
2018-03-06T07:14:09.756Z,67.40
2018-03-06T07:16:38.650Z,67.02
2018-03-06T07:19:07.546Z,66.70
2018-03-06T07:21:36.127Z,66.44
2018-03-06T07:24:04.703Z,66.09
2018-03-06T07:26:33.471Z,65.95
2018-03-06T07:29:02.017Z,65.92
2018-03-06T07:31:30.456Z,65.56
2018-03-06T07:33:59.038Z,65.08
2018-03-06T07:36:27.542Z,64.72
2018-03-06T07:38:55.974Z,64.21
2018-03-06T07:41:24.494Z,63.62
2018-03-06T07:43:52.971Z,63.23
2018-03-06T07:46:21.555Z,62.43
2018-03-06T07:48:50.119Z,61.92
2018-03-06T07:51:19.422Z,61.49
2018-03-06T07:53:47.924Z,61.22
2018-03-06T07:56:17.498Z,61.22
2018-03-06T07:58:46.080Z,60.77
2018-03-06T08:01:14.684Z,60.53
2018-03-06T08:03:45.106Z,60.65
2018-03-06T08:06:13.800Z,60.27
2018-03-06T08:08:42.585Z,59.55
2018-03-06T08:11:11.266Z,59.74
2018-03-06T08:13:39.747Z,59.08
2018-03-06T08:16:08.384Z,59.09
2018-03-06T08:18:37.121Z,58.87
2018-03-06T08:21:05.609Z,58.64
2018-03-06T08:23:34.185Z,58.61
2018-03-06T08:26:02.980Z,58.64
2018-03-06T08:28:31.582Z,58.40
2018-03-06T08:31:00.149Z,58.20
2018-03-06T08:33:29.837Z,58.05
2018-03-06T08:35:58.282Z,57.36
2018-03-06T08:38:26.825Z,56.55
2018-03-06T08:40:55.374Z,56.56
2018-03-06T08:43:23.821Z,55.99
2018-03-06T08:45:52.302Z,56.09
2018-03-06T08:48:20.829Z,55.82
2018-03-06T08:50:49.314Z,55.25
2018-03-06T08:53:17.745Z,54.63
2018-03-06T08:55:46.263Z,53.30
2018-03-06T08:58:14.748Z,51.09
2018-03-06T09:00:43.241Z,49.41
2018-03-06T09:03:12.176Z,46.78
2018-03-06T09:05:40.824Z,43.97
2018-03-06T09:08:09.491Z,42.88
2018-03-06T09:10:38.071Z,41.99
2018-03-06T09:13:06.727Z,41.43
2018-03-06T09:15:35.309Z,40.70
2018-03-06T09:18:04.702Z,41.45
2018-03-06T09:20:33.204Z,42.10
2018-03-06T09:23:01.674Z,40.05
2018-03-06T09:25:31.483Z,39.82
2018-03-06T09:27:59.968Z,42.12
2018-03-06T09:30:28.453Z,40.75
2018-03-06T09:32:56.960Z,40.45
2018-03-06T09:35:25.413Z,40.02
2018-03-06T09:37:53.846Z,40.93
2018-03-06T09:40:22.429Z,38.06
2018-03-06T09:42:50.857Z,37.98
2018-03-06T09:45:19.305Z,38.15
2018-03-06T09:47:48.053Z,36.77
2018-03-06T09:50:16.739Z,35.81
2018-03-06T09:52:45.219Z,35.00
2018-03-06T09:55:13.905Z,35.46
2018-03-06T09:57:42.528Z,34.79
2018-03-06T10:00:11.170Z,36.20
2018-03-06T10:02:39.772Z,37.17
2018-03-06T10:05:08.442Z,38.50
2018-03-06T10:07:37.037Z,38.54
2018-03-06T10:10:05.712Z,38.46
2018-03-06T10:12:34.199Z,38.37
2018-03-06T10:15:02.700Z,37.72
2018-03-06T10:17:31.212Z,38.93
2018-03-06T10:19:59.749Z,38.93
2018-03-06T10:22:28.285Z,38.57
2018-03-06T10:24:57.146Z,39.07
2018-03-06T10:27:27.650Z,38.33
2018-03-06T10:29:56.131Z,38.02
2018-03-06T10:32:24.604Z,37.78
2018-03-06T10:34:53.189Z,38.38
2018-03-06T10:37:21.673Z,37.41
2018-03-06T10:39:50.196Z,37.65
2018-03-06T10:42:18.830Z,38.22
2018-03-06T10:44:47.445Z,38.32
2018-03-06T10:47:15.965Z,36.12
2018-03-06T10:49:44.397Z,35.94
2018-03-06T10:52:13.326Z,35.92
2018-03-06T10:54:41.898Z,35.43
2018-03-06T10:57:10.467Z,35.81
2018-03-06T10:59:38.940Z,37.47
2018-03-06T11:02:07.708Z,38.04
2018-03-06T11:04:36.329Z,39.44
2018-03-06T11:07:04.808Z,38.15
2018-03-06T11:09:33.292Z,37.70
2018-03-06T11:12:01.865Z,37.25
2018-03-06T11:14:32.707Z,37.14
2018-03-06T11:17:01.226Z,36.91
2018-03-06T11:19:29.730Z,37.83
2018-03-06T11:21:58.257Z,37.82
2018-03-06T11:24:28.783Z,37.66
2018-03-06T11:26:57.234Z,37.52
2018-03-06T11:29:25.646Z,37.26
2018-03-06T11:31:54.154Z,37.57
2018-03-06T11:34:22.598Z,37.42
2018-03-06T11:36:51.146Z,36.93
2018-03-06T11:39:19.699Z,36.70
2018-03-06T11:41:48.245Z,37.14
2018-03-06T11:44:16.723Z,37.02
2018-03-06T11:46:45.247Z,37.88
2018-03-06T11:49:13.895Z,38.42
2018-03-06T11:51:42.654Z,39.33
2018-03-06T11:54:12.204Z,40.11
2018-03-06T11:56:40.769Z,39.98
2018-03-06T11:59:09.550Z,39.09
2018-03-06T12:01:38.238Z,39.07
2018-03-06T12:04:06.875Z,39.28
2018-03-06T12:06:36.039Z,38.27
2018-03-06T12:09:04.603Z,37.81
2018-03-06T12:11:33.060Z,37.71
2018-03-06T12:14:01.559Z,37.83
2018-03-06T12:16:30.116Z,37.71
2018-03-06T12:18:59.448Z,38.31
2018-03-06T12:21:28.491Z,40.04
2018-03-06T12:23:57.050Z,39.82
2018-03-06T12:26:25.592Z,38.66
2018-03-06T12:32:05.459Z,39.85
2018-03-06T12:34:35.476Z,40.04
2018-03-06T12:37:09.755Z,39.69
2018-03-06T12:39:39.018Z,40.09
2018-03-06T12:42:07.678Z,40.21
2018-03-06T12:44:36.197Z,41.12
2018-03-06T12:47:25.427Z,41.64
2018-03-06T12:49:58.921Z,42.01
2018-03-06T12:52:28.323Z,41.18
2018-03-06T12:54:56.803Z,40.86
2018-03-06T12:57:25.261Z,40.60
2018-03-06T12:59:56.458Z,40.84
2018-03-06T13:02:25.066Z,41.05
2018-03-06T13:04:53.599Z,40.12
2018-03-06T13:07:24.172Z,40.86
2018-03-06T13:09:57.964Z,43.16
2018-03-06T13:12:26.849Z,43.90
2018-03-06T13:14:56.463Z,44.49
2018-03-06T13:17:26.507Z,44.68
2018-03-06T13:20:06.087Z,45.16
2018-03-06T13:22:41.843Z,45.60
2018-03-06T13:25:10.420Z,45.75
2018-03-06T13:28:01.839Z,45.79
2018-03-06T13:33:30.318Z,45.73
2018-03-06T13:39:30.912Z,46.07
2018-03-06T13:41:59.505Z,46.05
2018-03-06T13:47:33.241Z,46.62
2018-03-06T13:50:02.201Z,47.00
2018-03-06T13:52:32.253Z,46.76
2018-03-06T13:57:58.356Z,47.54
2018-03-06T14:00:30.243Z,47.46
2018-03-06T14:03:00.643Z,47.33
2018-03-06T14:05:29.562Z,47.06
2018-03-06T14:08:04.182Z,47.28
2018-03-06T14:10:38.579Z,47.74
2018-03-06T14:13:08.035Z,47.87
2018-03-06T14:15:37.035Z,47.71
2018-03-06T14:18:06.336Z,47.68
2018-03-06T14:20:36.805Z,48.08
2018-03-06T14:23:05.335Z,48.46
2018-03-06T14:25:33.744Z,48.56
2018-03-06T14:28:04.294Z,48.21
2018-03-06T14:30:32.720Z,49.03
2018-03-06T14:33:01.161Z,48.46
2018-03-06T14:35:29.868Z,48.01
2018-03-06T14:37:58.328Z,48.40
2018-03-06T14:40:27.320Z,48.75
2018-03-06T14:42:59.389Z,48.03
2018-03-06T14:45:28.272Z,47.96
2018-03-06T14:47:56.958Z,48.36
2018-03-06T14:50:25.417Z,48.46
2018-03-06T14:52:53.833Z,48.20
2018-03-06T14:55:22.331Z,48.53
2018-03-06T14:57:51.605Z,48.48
2018-03-06T15:00:20.220Z,48.73
2018-03-06T15:02:48.729Z,48.58
2018-03-06T15:05:18.553Z,48.64
2018-03-06T15:07:47.070Z,49.45
2018-03-06T15:10:15.750Z,49.94
2018-03-06T15:12:45.017Z,50.39
2018-03-06T15:15:13.949Z,50.60
2018-03-06T15:17:42.637Z,51.07
2018-03-06T15:20:11.891Z,51.74
2018-03-06T15:22:40.506Z,51.94
2018-03-06T15:25:10.066Z,52.41
2018-03-06T15:27:39.137Z,52.26
2018-03-06T15:30:07.755Z,52.36
2018-03-06T15:32:38.040Z,52.74
2018-03-06T15:35:07.348Z,52.97
2018-03-06T15:37:38.928Z,53.19
2018-03-06T15:40:09.469Z,53.01
2018-03-06T15:42:38.257Z,53.47
2018-03-06T15:45:07.444Z,53.25
2018-03-06T15:47:36.069Z,53.21
2018-03-06T15:50:04.757Z,53.84
2018-03-06T15:52:33.354Z,53.69
2018-03-06T15:55:02.692Z,54.11
2018-03-06T15:57:31.176Z,53.98
2018-03-06T16:00:00.843Z,54.33
2018-03-06T16:02:30.175Z,54.48
2018-03-06T16:04:58.819Z,54.55
2018-03-06T16:07:27.404Z,54.24
2018-03-06T16:09:55.979Z,54.98
2018-03-06T16:12:24.539Z,55.54
2018-03-06T16:14:53.812Z,56.10
2018-03-06T16:17:22.823Z,56.55
2018-03-06T16:19:51.398Z,57.11
2018-03-06T16:22:19.984Z,57.89
2018-03-06T16:24:49.673Z,57.76
2018-03-06T16:27:18.367Z,58.45
2018-03-06T16:29:46.976Z,57.95
2018-03-06T16:32:15.853Z,58.16
2018-03-06T16:34:44.729Z,58.65
2018-03-06T16:37:14.660Z,58.85
2018-03-06T16:39:43.339Z,59.16
2018-03-06T16:42:12.237Z,59.34
2018-03-06T16:44:44.037Z,59.47
2018-03-06T16:47:13.969Z,60.03
2018-03-06T16:49:43.027Z,60.14
2018-03-06T16:52:15.215Z,60.37
2018-03-06T16:54:44.208Z,60.91
2018-03-06T16:57:15.635Z,61.40
2018-03-06T16:59:47.058Z,61.32
2018-03-06T17:02:16.354Z,61.26
2018-03-06T17:04:45.725Z,61.25
2018-03-06T17:07:16.205Z,61.72
2018-03-06T17:09:45.966Z,61.79
2018-03-06T17:12:15.813Z,62.15
2018-03-06T17:14:44.931Z,62.13
2018-03-06T17:17:14.538Z,62.21
2018-03-06T17:19:43.100Z,62.10
2018-03-06T17:22:11.658Z,62.16
2018-03-06T17:24:42.218Z,62.20
2018-03-06T17:27:13.837Z,62.71
2018-03-06T17:29:44.473Z,62.62
2018-03-06T17:32:14.312Z,62.61
2018-03-06T17:34:43.574Z,62.74
2018-03-06T17:37:12.464Z,62.62
2018-03-06T17:39:42.697Z,62.96
2018-03-06T17:42:13.656Z,62.80
2018-03-06T17:44:42.633Z,62.78
2018-03-06T17:47:11.647Z,62.84
2018-03-06T17:49:43.196Z,63.08
2018-03-06T17:52:11.855Z,63.27
2018-03-06T17:54:43.518Z,63.18
2018-03-06T17:57:13.277Z,63.30
2018-03-06T17:59:43.446Z,63.50
2018-03-06T18:02:15.333Z,64.05
2018-03-06T18:04:44.085Z,64.61
2018-03-06T18:07:15.098Z,65.01
2018-03-06T18:09:46.743Z,65.02
2018-03-06T18:12:16.486Z,65.33
2018-03-06T18:14:45.096Z,65.65
2018-03-06T18:17:15.610Z,66.02
2018-03-06T18:19:46.682Z,66.53
2018-03-06T18:22:19.873Z,66.66
2018-03-06T18:24:49.026Z,66.48
2018-03-06T18:27:17.634Z,66.74
2018-03-06T18:29:46.505Z,67.17
2018-03-06T18:32:17.183Z,67.00
2018-03-06T18:34:46.226Z,66.95
2018-03-06T18:37:16.562Z,66.91
2018-03-06T18:39:45.590Z,66.66
2018-03-06T18:42:14.100Z,67.02
2018-03-06T18:44:49.201Z,66.79
2018-03-06T18:47:21.687Z,67.22
2018-03-06T19:32:11.089Z,68.80
2018-03-06T19:34:39.733Z,68.87
2018-03-06T19:37:08.493Z,68.60
2018-03-06T19:39:37.574Z,68.40
2018-03-06T19:42:06.062Z,68.40
2018-03-06T19:44:34.599Z,68.29
2018-03-06T19:47:03.591Z,68.15
2018-03-06T19:49:33.273Z,68.60
2018-03-06T19:52:01.752Z,68.57
2018-03-06T19:54:30.749Z,68.43
2018-03-06T19:56:59.458Z,68.35
2018-03-06T19:59:27.910Z,68.47
2018-03-06T20:01:56.422Z,68.62
2018-03-06T20:04:25.135Z,68.86
2018-03-06T20:06:54.163Z,68.74
2018-03-06T20:09:23.656Z,69.00
2018-03-06T20:11:52.315Z,68.44
2018-03-06T20:14:27.502Z,68.14
2018-03-06T20:16:56.087Z,68.02
2018-03-06T20:19:30.291Z,68.40
2018-03-06T20:21:59.869Z,68.04
2018-03-06T20:24:33.945Z,68.65
2018-03-06T20:27:02.496Z,68.72
2018-03-06T20:29:31.050Z,68.82
2018-03-06T20:32:06.447Z,68.69
2018-03-06T20:34:41.994Z,68.43
2018-03-06T20:37:12.824Z,68.50
2018-03-06T20:39:47.531Z,68.22
2018-03-06T20:42:18.681Z,68.50
2018-03-06T20:44:58.117Z,68.92
2018-03-06T20:47:28.727Z,68.94
2018-03-06T20:49:58.474Z,68.84
2018-03-06T20:52:31.385Z,68.79
2018-03-06T20:55:06.278Z,68.73
2018-03-06T20:57:35.198Z,68.89
2018-03-06T21:00:14.205Z,69.24
2018-03-06T21:02:48.114Z,68.98
2018-03-06T21:05:18.565Z,69.33
2018-03-06T21:07:48.164Z,69.26
2018-03-06T21:10:17.319Z,69.31
2018-03-06T21:12:46.135Z,69.65
2018-03-06T21:15:15.499Z,69.54
2018-03-06T21:17:47.769Z,69.36
2018-03-06T21:20:17.001Z,69.96
2018-03-06T21:22:51.329Z,70.28
2018-03-06T21:25:20.208Z,70.07
2018-03-06T21:27:49.000Z,69.76
2018-03-06T21:30:17.780Z,69.63
2018-03-06T21:32:48.232Z,69.62
2018-03-06T21:35:17.177Z,69.60
2018-03-06T21:37:48.592Z,69.45
2018-03-06T21:40:17.303Z,69.52
2018-03-06T21:42:51.279Z,69.61
2018-03-06T21:45:20.194Z,69.49
2018-03-06T21:47:48.776Z,69.41
2018-03-06T21:50:18.408Z,69.13
2018-03-06T21:52:47.757Z,69.11
2018-03-06T21:55:16.822Z,69.15
2018-03-06T21:57:47.060Z,69.62
2018-03-06T22:00:18.473Z,69.36
2018-03-06T22:02:49.004Z,69.62
2018-03-06T22:05:18.531Z,69.40
2018-03-06T22:07:47.176Z,69.49
2018-03-06T22:10:17.127Z,69.08
2018-03-06T22:12:46.705Z,68.83
2018-03-06T22:15:17.858Z,68.72
2018-03-06T22:17:46.771Z,68.76
2018-03-06T22:20:16.003Z,68.99
2018-03-06T22:22:45.266Z,68.74
2018-03-06T22:25:14.729Z,69.34
2018-03-06T22:27:46.485Z,69.30
2018-03-06T22:30:15.480Z,68.93
2018-03-06T22:32:44.087Z,69.49
2018-03-06T22:35:12.875Z,69.55
2018-03-06T22:37:41.351Z,69.24
2018-03-06T22:40:10.633Z,69.66
2018-03-06T22:42:41.729Z,69.67
2018-03-06T22:45:10.276Z,69.20
2018-03-06T22:47:38.850Z,69.49
2018-03-06T22:50:07.630Z,69.21
2018-03-06T22:52:36.111Z,69.10
2018-03-06T22:55:05.108Z,69.18
2018-03-06T22:57:34.358Z,69.46
2018-03-06T23:00:03.963Z,69.25
2018-03-06T23:02:33.289Z,69.08
2018-03-06T23:05:02.630Z,69.08
2018-03-06T23:07:31.198Z,69.14
2018-03-06T23:09:59.720Z,68.81
2018-03-06T23:12:28.370Z,68.96
2018-03-06T23:14:56.836Z,69.07
2018-03-06T23:17:25.437Z,69.25
2018-03-06T23:19:54.467Z,69.58
2018-03-06T23:22:23.000Z,69.24
2018-03-06T23:24:51.484Z,68.71
2018-03-06T23:27:19.969Z,69.04
2018-03-06T23:29:48.474Z,68.92
2018-03-06T23:32:17.313Z,69.08
2018-03-06T23:34:46.584Z,68.56
2018-03-06T23:37:15.020Z,68.57
2018-03-06T23:39:43.501Z,68.69
2018-03-06T23:42:12.015Z,69.17
2018-03-06T23:44:40.774Z,69.42
2018-03-06T23:47:09.460Z,69.31
2018-03-06T23:49:38.102Z,69.20
2018-03-06T23:52:06.798Z,68.87
2018-03-06T23:54:35.411Z,69.01
2018-03-06T23:57:03.990Z,68.90
2018-03-06T23:59:33.192Z,69.01
